createdAt,value
2018-07-25T00:01:46.682Z,53.50
2018-07-25T00:06:43.915Z,54.10
2018-07-25T00:11:41.170Z,55.30
2018-07-25T00:14:09.838Z,55.40
2018-07-25T00:16:38.570Z,55.70
2018-07-25T00:21:35.685Z,56.50
2018-07-25T00:24:04.409Z,56.50
2018-07-25T00:26:33.181Z,56.40
2018-07-25T00:29:02.202Z,56.20
2018-07-25T00:31:30.947Z,56.20
2018-07-25T00:38:56.452Z,56.00
2018-07-25T00:41:25.165Z,55.80
2018-07-25T00:43:53.903Z,55.20
2018-07-25T00:46:22.658Z,54.90
2018-07-25T00:48:51.380Z,55.10
2018-07-25T00:51:20.161Z,55.70
2018-07-25T00:53:48.830Z,55.80
2018-07-25T00:56:17.604Z,55.70
2018-07-25T00:58:46.255Z,55.40
2018-07-25T01:01:14.989Z,55.90
2018-07-25T01:03:43.887Z,55.40
2018-07-25T01:06:12.591Z,55.80
2018-07-25T01:08:41.354Z,55.90
2018-07-25T01:11:10.704Z,55.70
2018-07-25T01:13:39.442Z,55.90
2018-07-25T01:16:08.185Z,55.90
2018-07-25T01:18:36.925Z,55.80
2018-07-25T01:21:05.593Z,56.00
2018-07-25T01:23:34.285Z,56.20
2018-07-25T01:26:03.017Z,56.10
2018-07-25T01:33:28.478Z,55.70
2018-07-25T01:35:57.196Z,56.00
2018-07-25T01:38:25.860Z,56.00
2018-07-25T01:40:54.581Z,56.00
2018-07-25T01:43:23.286Z,56.00
2018-07-25T01:45:52.015Z,55.80
2018-07-25T01:48:20.706Z,55.80
2018-07-25T01:55:46.197Z,57.50
2018-07-25T01:58:14.877Z,57.50
2018-07-25T02:05:42.203Z,56.90
2018-07-25T02:10:43.358Z,57.10
2018-07-25T02:13:13.145Z,57.30
2018-07-25T02:18:10.338Z,57.40
2018-07-25T02:20:39.005Z,57.50
2018-07-25T02:23:07.702Z,57.90
2018-07-25T02:30:33.264Z,58.40
2018-07-25T02:35:30.394Z,58.50
2018-07-25T02:37:59.089Z,58.30
2018-07-25T02:40:27.784Z,58.00
2018-07-25T02:42:56.491Z,58.00
2018-07-25T02:47:53.582Z,58.40
2018-07-25T02:50:22.322Z,58.50
2018-07-25T02:52:50.995Z,58.80
2018-07-25T02:55:19.696Z,58.90
2018-07-25T02:57:48.369Z,59.50
2018-07-25T03:00:17.104Z,59.80
2018-07-25T03:02:45.836Z,60.10
2018-07-25T03:07:42.990Z,60.70
2018-07-25T03:10:11.663Z,60.70
2018-07-25T03:12:40.397Z,60.90
2018-07-25T03:17:37.480Z,61.20
2018-07-25T03:20:06.146Z,61.20
2018-07-25T03:22:34.845Z,60.90
2018-07-25T03:27:31.982Z,60.60
2018-07-25T03:32:29.061Z,60.80
2018-07-25T03:34:57.754Z,62.00
2018-07-25T03:39:54.832Z,61.30
2018-07-25T03:44:51.858Z,61.00
2018-07-25T03:49:48.982Z,61.30
2018-07-25T03:52:17.719Z,61.10
2018-07-25T03:57:14.864Z,60.90
2018-07-25T03:59:43.615Z,61.00
2018-07-25T04:02:12.497Z,60.80
2018-07-25T04:09:38.562Z,60.90
2018-07-25T04:12:07.224Z,61.00
2018-07-25T04:17:04.325Z,60.40
2018-07-25T04:19:33.090Z,60.40
2018-07-25T04:24:30.185Z,60.70
2018-07-25T04:26:58.899Z,60.90
2018-07-25T04:29:28.178Z,60.30
2018-07-25T04:31:56.869Z,60.70
2018-07-25T04:34:25.603Z,60.50
2018-07-25T04:36:54.310Z,59.70
2018-07-25T04:39:23.088Z,60.10
2018-07-25T04:41:51.766Z,59.60
2018-07-25T04:44:20.469Z,59.90
2018-07-25T04:54:15.196Z,59.40
2018-07-25T05:01:40.740Z,59.60
2018-07-25T05:04:09.436Z,59.70
2018-07-25T05:09:07.789Z,59.10
2018-07-25T05:11:36.578Z,58.50
2018-07-25T05:21:32.487Z,56.70
2018-07-25T05:28:58.334Z,55.60
2018-07-25T05:31:27.052Z,55.20
2018-07-25T05:36:24.146Z,55.30
2018-07-25T05:38:52.880Z,55.10
2018-07-25T05:41:21.609Z,53.80
2018-07-25T05:43:50.272Z,53.20
2018-07-25T05:58:42.340Z,44.30
2018-07-25T06:01:10.878Z,44.70
2018-07-25T06:03:39.547Z,43.10
2018-07-25T06:06:08.317Z,40.70
2018-07-25T06:08:37.211Z,41.10
2018-07-25T06:11:06.503Z,37.10
2018-07-25T06:13:35.217Z,37.70
2018-07-25T06:16:04.137Z,31.80
2018-07-25T06:18:32.850Z,30.10
2018-07-25T06:21:01.568Z,30.50
2018-07-25T06:25:59.028Z,27.10
2018-07-25T06:28:27.745Z,26.40
2018-07-25T06:30:56.420Z,25.60
2018-07-25T06:33:25.117Z,25.30
2018-07-25T06:35:53.785Z,25.90
2018-07-25T06:45:47.649Z,34.00
2018-07-25T06:48:16.681Z,35.70
2018-07-25T06:50:45.461Z,37.20
2018-07-25T06:53:14.124Z,38.40
2018-07-25T06:55:43.005Z,38.50
2018-07-25T06:58:11.684Z,38.20
2018-07-25T07:00:40.374Z,34.80
2018-07-25T07:03:09.030Z,30.90
2018-07-25T07:05:37.830Z,28.90
2018-07-25T07:08:07.163Z,27.20
2018-07-25T07:10:35.857Z,25.90
2018-07-25T07:13:04.605Z,24.70
2018-07-25T07:15:33.280Z,23.80
2018-07-25T07:25:27.176Z,20.40
2018-07-25T07:27:55.877Z,20.60
2018-07-25T07:30:24.548Z,20.80
2018-07-25T07:32:53.257Z,20.10
2018-07-25T07:37:50.400Z,19.30
2018-07-25T07:40:19.086Z,18.70
2018-07-25T07:42:47.789Z,18.70
2018-07-25T07:45:16.468Z,18.70
2018-07-25T07:47:45.220Z,18.30
2018-07-25T07:52:42.318Z,18.20
2018-07-25T07:55:11.041Z,17.70
2018-07-25T07:57:39.679Z,17.50
2018-07-25T08:00:08.418Z,18.00
2018-07-25T08:05:05.921Z,17.20
2018-07-25T08:07:34.520Z,17.70
2018-07-25T08:10:09.655Z,17.30
2018-07-25T08:12:38.332Z,16.10
2018-07-25T08:15:07.286Z,15.90
2018-07-25T08:17:35.969Z,15.90
2018-07-25T08:20:04.709Z,16.10
2018-07-25T08:22:34.297Z,16.00
2018-07-25T08:25:03.016Z,15.00
2018-07-25T08:27:31.686Z,15.30
2018-07-25T08:30:00.442Z,15.90
2018-07-25T08:32:29.598Z,14.50
2018-07-25T08:34:58.263Z,15.00
2018-07-25T08:37:27.989Z,14.70
2018-07-25T08:39:56.661Z,14.40
2018-07-25T08:42:25.328Z,14.30
2018-07-25T08:44:55.024Z,13.70
2018-07-25T08:47:23.706Z,13.50
2018-07-25T08:49:52.391Z,13.80
2018-07-25T08:52:21.110Z,13.60
2018-07-25T08:54:49.854Z,13.40
2018-07-25T08:59:46.997Z,12.60
2018-07-25T09:09:40.947Z,12.80
